createdAt,value
2023-04-02T00:00:41.479Z,81.18
2023-04-02T00:04:00.716Z,82.06
2023-04-02T00:06:44.265Z,82.36
2023-04-02T00:09:23.776Z,82.84
2023-04-02T00:11:59.995Z,82.55
2023-04-02T00:14:30.771Z,82.82
2023-04-02T00:17:01.906Z,83.03
2023-04-02T00:19:35.817Z,82.62
2023-04-02T00:22:06.312Z,83.52
2023-04-02T00:24:35.190Z,83.74
2023-04-02T00:27:03.832Z,83.58
2023-04-02T00:29:32.627Z,83.77
2023-04-02T00:32:03.278Z,83.85
2023-04-02T00:34:36.369Z,83.88
2023-04-02T00:37:07.015Z,83.18
2023-04-02T00:39:40.057Z,82.84
2023-04-02T00:42:12.856Z,82.95
2023-04-02T00:44:43.778Z,82.77
2023-04-02T00:47:16.702Z,82.66
2023-04-02T00:49:47.378Z,83.66
2023-04-02T00:52:17.746Z,83.68
2023-04-02T00:54:50.348Z,83.07
2023-04-02T00:57:28.269Z,84.06
2023-04-02T01:00:15.634Z,84.53
2023-04-02T01:03:04.849Z,84.62
2023-04-02T01:05:43.401Z,84.38
2023-04-02T01:08:17.171Z,84.24
2023-04-02T01:10:58.675Z,84.43
2023-04-02T01:13:31.614Z,84.69
2023-04-02T01:16:08.924Z,84.64
2023-04-02T01:19:02.430Z,84.00
2023-04-02T01:21:53.577Z,84.23
2023-04-02T01:24:24.802Z,83.70
2023-04-02T01:26:57.277Z,83.81
2023-04-02T01:29:31.129Z,83.52
2023-04-02T01:32:03.031Z,83.22
2023-04-02T01:34:33.953Z,83.12
2023-04-02T01:37:18.259Z,82.67
2023-04-02T01:39:54.984Z,82.73
2023-04-02T01:42:27.694Z,82.37
2023-04-02T01:45:04.337Z,82.78
2023-04-02T01:47:32.960Z,83.09
2023-04-02T01:50:04.221Z,83.28
2023-04-02T01:52:38.414Z,82.97
2023-04-02T01:55:08.252Z,82.99
2023-04-02T01:57:38.053Z,83.20
2023-04-02T02:00:12.452Z,82.45
2023-04-02T02:02:46.639Z,82.54
2023-04-02T02:05:16.737Z,83.23
2023-04-02T02:07:46.082Z,83.47
2023-04-02T02:10:15.804Z,83.43
2023-04-02T02:12:45.522Z,83.52
2023-04-02T02:15:16.526Z,84.25
2023-04-02T02:17:51.346Z,84.19
2023-04-02T02:20:27.313Z,83.96
2023-04-02T02:22:56.530Z,83.83
2023-04-02T02:25:31.714Z,83.82
2023-04-02T02:28:04.065Z,83.91
2023-04-02T02:30:34.686Z,83.38
2023-04-02T02:33:06.853Z,83.78
2023-04-02T02:35:38.739Z,84.01
2023-04-02T02:38:23.375Z,83.84
2023-04-02T02:40:56.859Z,83.15
2023-04-02T02:43:27.187Z,84.05
2023-04-02T02:45:57.885Z,83.73
2023-04-02T02:48:28.643Z,84.34
2023-04-02T02:51:02.466Z,84.10
2023-04-02T02:53:32.456Z,84.08
2023-04-02T02:56:02.187Z,83.77
2023-04-02T02:58:33.418Z,83.56
2023-04-02T03:01:08.902Z,83.77
2023-04-02T03:03:38.367Z,83.87
2023-04-02T03:06:10.096Z,84.21
2023-04-02T03:08:41.605Z,83.97
2023-04-02T03:11:12.641Z,83.58
2023-04-02T03:13:46.806Z,83.54
2023-04-02T03:16:19.348Z,83.67
2023-04-02T03:18:51.664Z,83.57
2023-04-02T03:21:25.849Z,83.35
2023-04-02T03:24:01.242Z,83.20
2023-04-02T03:26:34.548Z,83.49
2023-04-02T03:29:07.113Z,83.67
2023-04-02T03:31:39.533Z,83.38
2023-04-02T03:34:13.450Z,83.27
2023-04-02T03:36:43.739Z,83.04
2023-04-02T03:39:17.369Z,83.19
2023-04-02T03:41:51.795Z,82.68
2023-04-02T03:44:22.966Z,82.57
2023-04-02T03:46:57.098Z,82.70
2023-04-02T03:49:36.647Z,82.83
2023-04-02T03:52:14.848Z,82.74
2023-04-02T03:54:54.121Z,82.99
2023-04-02T03:57:25.892Z,82.31
2023-04-02T03:59:58.525Z,82.17
2023-04-02T04:02:35.610Z,82.01
2023-04-02T04:05:06.003Z,82.35
2023-04-02T04:07:37.184Z,82.65
2023-04-02T04:10:06.973Z,82.62
2023-04-02T04:12:36.433Z,82.18
2023-04-02T04:15:07.922Z,82.18
2023-04-02T04:17:50.998Z,82.03
2023-04-02T04:20:22.546Z,82.33
2023-04-02T04:22:55.182Z,82.41
2023-04-02T04:25:28.958Z,82.53
2023-04-02T04:28:10.371Z,82.45
2023-04-02T04:30:46.710Z,82.47
2023-04-02T04:33:24.220Z,82.27
2023-04-02T04:35:54.747Z,82.13
2023-04-02T04:38:32.317Z,81.85
2023-04-02T04:41:04.569Z,81.71
2023-04-02T04:43:42.758Z,81.49
2023-04-02T04:46:15.792Z,81.31
2023-04-02T04:48:50.290Z,81.15
2023-04-02T04:51:21.080Z,81.12
2023-04-02T04:53:57.583Z,81.04
2023-04-02T04:56:27.247Z,81.04
2023-04-02T04:59:02.274Z,80.88
2023-04-02T05:01:37.007Z,80.90
2023-04-02T05:04:09.383Z,80.78
2023-04-02T05:06:41.214Z,80.63
2023-04-02T05:09:14.632Z,80.62
2023-04-02T05:11:45.751Z,80.45
2023-04-02T05:14:19.467Z,80.48
2023-04-02T05:16:51.613Z,80.57
2023-04-02T05:49:55.476Z,79.18
2023-04-02T05:52:28.012Z,79.30
2023-04-02T05:54:59.082Z,79.31
2023-04-02T05:57:43.831Z,79.34
2023-04-02T06:00:19.871Z,79.41
2023-04-02T06:02:54.351Z,78.74
2023-04-02T06:05:24.223Z,78.68
2023-04-02T06:07:56.270Z,78.76
2023-04-02T06:10:28.903Z,78.79
2023-04-02T06:13:03.252Z,78.65
2023-04-02T06:15:33.331Z,78.48
2023-04-02T06:18:08.066Z,78.05
2023-04-02T06:20:36.902Z,78.16
2023-04-02T06:23:12.424Z,78.12
2023-04-02T06:25:46.616Z,77.89
2023-04-02T06:28:18.652Z,77.84
2023-04-02T06:30:50.491Z,77.35
2023-04-02T06:33:19.110Z,76.97
2023-04-02T06:35:50.817Z,77.09
2023-04-02T06:38:21.404Z,77.14
2023-04-02T06:40:52.072Z,76.68
2023-04-02T06:43:25.788Z,76.66
2023-04-02T06:45:56.984Z,76.36
2023-04-02T06:48:25.326Z,76.62
2023-04-02T06:50:56.788Z,76.64
2023-04-02T06:53:26.772Z,76.65
2023-04-02T06:56:03.706Z,76.75
2023-04-02T06:58:33.846Z,76.37
2023-04-02T07:01:03.421Z,76.45
2023-04-02T07:03:33.279Z,76.33
2023-04-02T07:06:03.136Z,76.30
2023-04-02T07:08:32.148Z,76.15
2023-04-02T07:11:00.343Z,76.23
2023-04-02T07:13:30.273Z,76.29
2023-04-02T07:15:58.629Z,76.34
2023-04-02T07:18:27.862Z,75.81
2023-04-02T07:20:56.924Z,76.10
2023-04-02T07:23:25.609Z,76.41
2023-04-02T07:25:54.973Z,76.33
2023-04-02T07:28:23.754Z,76.12
2023-04-02T07:30:52.441Z,76.11
2023-04-02T07:33:21.680Z,76.34
2023-04-02T07:35:50.350Z,75.99
2023-04-02T07:38:18.868Z,75.83
2023-04-02T07:40:47.138Z,75.88
2023-04-02T07:43:15.818Z,75.65
2023-04-02T07:45:44.222Z,75.28
2023-04-02T07:48:13.395Z,75.40
2023-04-02T07:50:42.070Z,75.68
2023-04-02T07:53:19.580Z,75.77
2023-04-02T07:55:52.854Z,75.52
2023-04-02T07:58:21.104Z,75.75
2023-04-02T08:00:49.867Z,76.00
2023-04-02T08:03:18.839Z,76.27
2023-04-02T08:05:53.859Z,75.82
2023-04-02T08:08:23.681Z,76.04
2023-04-02T08:10:52.238Z,75.86
2023-04-02T08:13:20.531Z,75.57
2023-04-02T08:15:48.998Z,75.60
2023-04-02T08:18:17.626Z,75.09
2023-04-02T08:20:45.993Z,75.20
2023-04-02T08:23:18.393Z,75.22
2023-04-02T08:25:46.688Z,74.71
2023-04-02T08:28:14.906Z,74.63
2023-04-02T08:30:43.886Z,74.71
2023-04-02T08:33:14.207Z,74.76
2023-04-02T08:35:42.511Z,75.19
2023-04-02T08:38:14.293Z,75.05
2023-04-02T08:40:44.252Z,74.92
2023-04-02T08:43:23.532Z,74.34
2023-04-02T08:46:00.696Z,74.63
2023-04-02T08:48:33.862Z,74.56
2023-04-02T08:51:03.924Z,74.04
2023-04-02T08:53:34.387Z,73.28
2023-04-02T08:56:09.380Z,73.29
2023-04-02T08:58:41.362Z,73.39
2023-04-02T09:01:18.247Z,73.91
2023-04-02T09:03:48.992Z,74.33
2023-04-02T09:06:19.504Z,74.41
2023-04-02T09:08:50.829Z,74.50
2023-04-02T09:11:23.160Z,74.63
2023-04-02T09:13:54.838Z,74.34
2023-04-02T09:16:34.246Z,74.54
2023-04-02T09:19:12.743Z,74.17
2023-04-02T09:21:43.706Z,73.85
2023-04-02T09:24:12.320Z,73.90
2023-04-02T09:26:40.589Z,74.00
2023-04-02T09:29:35.316Z,73.85
2023-04-02T09:32:08.409Z,73.70
2023-04-02T09:34:37.056Z,72.88
2023-04-02T09:37:08.582Z,72.35
2023-04-02T09:39:39.389Z,72.17
2023-04-02T09:42:38.656Z,71.78
2023-04-02T09:45:14.128Z,71.73
2023-04-02T09:47:42.862Z,71.90
2023-04-02T09:50:19.555Z,71.56
2023-04-02T09:52:48.569Z,70.72
2023-04-02T09:55:22.239Z,70.91
2023-04-02T09:58:07.232Z,71.51
2023-04-02T10:00:37.006Z,71.17
2023-04-02T10:03:19.010Z,71.36
2023-04-02T10:05:49.271Z,70.80
2023-04-02T10:08:20.040Z,70.54
2023-04-02T10:10:51.337Z,70.99
2023-04-02T10:13:28.892Z,71.35
2023-04-02T10:16:14.298Z,70.82
2023-04-02T10:19:10.509Z,70.47
2023-04-02T10:21:49.119Z,70.70
2023-04-02T10:24:22.158Z,70.38
2023-04-02T10:27:03.529Z,70.41
2023-04-02T10:29:44.414Z,70.25
2023-04-02T10:32:18.486Z,70.37
2023-04-02T10:34:57.232Z,70.43
2023-04-02T10:37:38.661Z,70.19
2023-04-02T10:40:11.310Z,69.87
2023-04-02T10:42:43.557Z,69.33
2023-04-02T10:45:20.050Z,68.91
2023-04-02T10:47:51.682Z,69.27
2023-04-02T10:50:27.917Z,69.35
2023-04-02T10:52:59.303Z,68.78
2023-04-02T10:55:31.732Z,67.46
2023-04-02T10:58:07.733Z,66.58
2023-04-02T11:00:41.168Z,67.41
2023-04-02T11:03:13.748Z,67.12
2023-04-02T11:05:44.757Z,66.68
2023-04-02T11:08:16.679Z,67.56
2023-04-02T11:10:51.800Z,67.99
2023-04-02T11:13:24.316Z,66.86
2023-04-02T11:15:53.823Z,67.50
2023-04-02T11:18:27.625Z,67.45
2023-04-02T11:20:59.656Z,66.71
2023-04-02T11:23:30.381Z,65.89
2023-04-02T11:26:17.087Z,66.77
2023-04-02T11:28:45.900Z,67.06
2023-04-02T11:31:20.901Z,66.69
2023-04-02T11:33:50.145Z,66.29
2023-04-02T11:36:37.084Z,66.35
2023-04-02T11:39:17.155Z,65.95
2023-04-02T11:42:04.544Z,66.24
2023-04-02T11:44:34.489Z,66.41
2023-04-02T11:47:16.980Z,66.81
2023-04-02T11:50:04.511Z,66.22
2023-04-02T11:52:37.668Z,66.25
2023-04-02T11:55:24.019Z,65.36
2023-04-02T11:58:05.741Z,64.46
2023-04-02T12:00:47.715Z,64.72
2023-04-02T12:03:32.031Z,65.11
2023-04-02T12:06:06.226Z,65.24
2023-04-02T12:08:50.890Z,65.20
2023-04-02T12:11:34.508Z,64.48
2023-04-02T12:14:16.367Z,63.33
2023-04-02T12:16:50.332Z,63.31
2023-04-02T12:19:20.621Z,63.44
2023-04-02T12:21:52.409Z,63.34
2023-04-02T12:24:22.519Z,61.38
2023-04-02T12:27:08.835Z,60.72
2023-04-02T12:29:38.918Z,59.64
2023-04-02T12:32:18.863Z,60.02
2023-04-02T12:34:47.927Z,61.31
2023-04-02T12:37:22.628Z,61.00
2023-04-02T12:39:55.117Z,60.35
2023-04-02T12:42:27.382Z,57.18
2023-04-02T12:44:56.256Z,58.64
2023-04-02T12:47:25.119Z,58.15
2023-04-02T12:49:54.097Z,58.37
2023-04-02T12:52:28.076Z,58.52
2023-04-02T12:54:58.240Z,56.79
2023-04-02T12:57:35.090Z,56.83
2023-04-02T13:00:24.323Z,54.54
2023-04-02T13:02:59.614Z,54.54
2023-04-02T13:05:35.890Z,53.31
2023-04-02T13:08:05.729Z,53.36
2023-04-02T13:10:35.998Z,54.79
2023-04-02T13:13:06.326Z,54.98
2023-04-02T13:15:37.911Z,55.21
2023-04-02T13:18:18.265Z,55.94
2023-04-02T13:20:58.300Z,55.25
2023-04-02T13:23:41.845Z,55.03
2023-04-02T13:26:19.061Z,53.80
2023-04-02T13:28:56.606Z,51.05
2023-04-02T13:31:25.756Z,53.64
2023-04-02T13:33:54.091Z,51.52
2023-04-02T13:36:22.490Z,52.24
2023-04-02T13:38:51.310Z,52.53
2023-04-02T13:41:22.620Z,50.40
2023-04-02T13:43:51.890Z,49.44
2023-04-02T13:46:21.994Z,50.20
2023-04-02T13:48:59.346Z,49.66
2023-04-02T13:51:38.058Z,48.97
2023-04-02T13:54:09.074Z,47.87
2023-04-02T13:56:38.188Z,46.69
2023-04-02T13:59:07.511Z,47.02
2023-04-02T14:01:39.140Z,46.59
2023-04-02T14:04:09.707Z,46.47
2023-04-02T14:06:59.343Z,46.61
2023-04-02T14:09:33.632Z,46.02
2023-04-02T14:12:10.885Z,46.18
2023-04-02T14:14:52.147Z,45.73
2023-04-02T14:17:27.483Z,45.45
2023-04-02T14:20:06.088Z,45.74
2023-04-02T14:22:43.268Z,45.55
2023-04-02T14:25:17.857Z,45.86
2023-04-02T14:27:50.272Z,45.64
2023-04-02T14:30:22.071Z,45.27
2023-04-02T14:33:00.426Z,44.84
2023-04-02T14:35:33.862Z,45.12
2023-04-02T14:38:09.004Z,44.81
2023-04-02T14:40:45.988Z,45.15
2023-04-02T14:43:17.182Z,45.69
2023-04-02T14:45:54.647Z,45.58
2023-04-02T14:48:30.852Z,45.64
2023-04-02T14:51:01.941Z,45.48
2023-04-02T14:53:34.281Z,47.19
2023-04-02T14:56:06.324Z,48.18
2023-04-02T14:58:38.512Z,48.41
2023-04-02T15:01:13.328Z,48.78
2023-04-02T15:03:46.765Z,49.34
2023-04-02T15:06:18.765Z,49.63
2023-04-02T15:08:58.605Z,49.69
2023-04-02T15:11:36.650Z,49.64
2023-04-02T15:14:11.415Z,49.60
2023-04-02T15:16:43.634Z,49.54
2023-04-02T15:19:14.079Z,49.28
2023-04-02T15:21:57.648Z,49.38
2023-04-02T15:24:32.426Z,49.02
2023-04-02T15:27:14.732Z,49.01
2023-04-02T15:29:56.248Z,49.14
2023-04-02T15:32:29.500Z,49.09
2023-04-02T15:35:01.669Z,48.91
2023-04-02T15:37:36.519Z,48.70
2023-04-02T15:40:17.956Z,47.74
2023-04-02T15:42:53.322Z,47.89
2023-04-02T15:45:53.402Z,48.36
2023-04-02T15:48:34.150Z,48.92
2023-04-02T15:51:10.411Z,49.15
2023-04-02T15:53:49.421Z,49.71
2023-04-02T15:56:22.989Z,50.08
2023-04-02T15:58:59.571Z,50.47
2023-04-02T16:01:32.520Z,50.63
2023-04-02T16:04:19.775Z,50.60
2023-04-02T16:06:56.751Z,50.98
2023-04-02T16:09:30.238Z,51.23
2023-04-02T16:12:12.440Z,51.41
2023-04-02T16:14:43.083Z,51.55
2023-04-02T16:17:24.283Z,51.81
2023-04-02T16:19:56.848Z,52.35
2023-04-02T16:22:27.260Z,52.49
2023-04-02T16:24:57.996Z,52.93
2023-04-02T16:30:06.371Z,53.75
2023-04-02T16:32:59.784Z,53.97
2023-04-02T16:38:09.296Z,54.08
2023-04-02T16:40:40.777Z,54.56
2023-04-02T16:43:15.301Z,54.58
2023-04-02T16:45:47.043Z,54.83
2023-04-02T16:48:21.738Z,55.04
2023-04-02T16:50:56.241Z,55.21
2023-04-02T16:53:31.904Z,55.43
2023-04-02T16:56:13.195Z,55.62
2023-04-02T16:58:46.073Z,55.92
2023-04-02T17:01:18.901Z,56.38
2023-04-02T17:03:53.210Z,56.70
2023-04-02T17:41:08.160Z,58.65
2023-04-02T17:43:42.562Z,58.73
2023-04-02T17:46:16.810Z,58.55
2023-04-02T17:48:48.022Z,58.55
2023-04-02T17:51:21.271Z,58.75
2023-04-02T17:54:02.150Z,59.05
2023-04-02T17:56:39.550Z,59.18
2023-04-02T17:59:16.488Z,59.29
2023-04-02T18:01:50.762Z,59.66
2023-04-02T18:04:28.261Z,60.01
2023-04-02T18:07:06.406Z,59.65
2023-04-02T18:09:45.949Z,59.34
2023-04-02T18:12:22.140Z,59.15
2023-04-02T18:15:01.315Z,59.43
2023-04-02T18:17:41.394Z,59.70
2023-04-02T18:20:18.471Z,59.64
2023-04-02T18:22:54.518Z,59.48
2023-04-02T18:25:38.447Z,59.09
2023-04-02T18:28:18.497Z,59.32
2023-04-02T18:30:50.932Z,59.19
2023-04-02T18:33:37.859Z,59.44
2023-04-02T18:36:11.669Z,59.79
2023-04-02T18:38:43.354Z,59.92
2023-04-02T18:41:21.611Z,60.04
2023-04-02T18:44:02.353Z,60.23
2023-04-02T18:46:37.612Z,60.23
2023-04-02T18:49:19.176Z,60.38
2023-04-02T18:51:53.539Z,60.42
2023-04-02T18:54:41.379Z,60.54
2023-04-02T18:57:41.678Z,60.80
2023-04-02T19:00:40.708Z,60.71
2023-04-02T19:03:22.053Z,60.60
2023-04-02T19:05:56.172Z,60.38
2023-04-02T19:08:36.503Z,60.28
2023-04-02T19:14:38.586Z,60.70
2023-04-02T19:17:57.401Z,60.63
2023-04-02T19:20:32.367Z,60.73
2023-04-02T19:23:09.407Z,60.85
2023-04-02T19:25:50.475Z,61.04
2023-04-02T19:28:34.156Z,60.89
2023-04-02T19:31:22.899Z,61.10
2023-04-02T19:33:55.049Z,61.33
2023-04-02T19:36:47.187Z,61.27
2023-04-02T19:39:50.945Z,61.33
2023-04-02T19:42:48.705Z,61.54
2023-04-02T19:45:38.889Z,61.73
2023-04-02T19:48:25.467Z,61.99
2023-04-02T19:51:03.462Z,62.20
2023-04-02T19:53:43.197Z,62.24
2023-04-02T19:56:16.027Z,62.64
2023-04-02T19:58:45.637Z,62.79
2023-04-02T20:01:17.746Z,62.79
2023-04-02T20:03:58.146Z,63.06
2023-04-02T20:06:29.606Z,63.05
2023-04-02T20:08:59.005Z,63.00
2023-04-02T20:11:40.490Z,63.00
2023-04-02T20:14:30.696Z,63.11
2023-04-02T20:17:01.685Z,63.05
2023-04-02T20:19:30.674Z,63.03
2023-04-02T20:22:18.683Z,63.09
2023-04-02T20:24:47.928Z,63.11
2023-04-02T20:27:18.218Z,63.22
2023-04-02T20:29:47.669Z,63.47
2023-04-02T20:32:17.027Z,63.63
2023-04-02T20:34:46.448Z,64.25
2023-04-02T20:37:53.527Z,64.64
2023-04-02T20:40:24.485Z,65.14
2023-04-02T20:42:53.451Z,64.87
2023-04-02T20:45:22.446Z,65.09
2023-04-02T20:47:52.115Z,65.15
2023-04-02T20:51:12.097Z,66.00
2023-04-02T20:53:35.094Z,65.87
2023-04-02T20:56:20.403Z,66.00
2023-04-02T20:58:51.120Z,65.93
2023-04-02T21:01:20.161Z,65.87
2023-04-02T21:03:48.968Z,65.87
2023-04-02T21:06:21.310Z,65.92
2023-04-02T21:08:50.310Z,65.81
2023-04-02T21:11:22.754Z,65.64
2023-04-02T21:13:51.299Z,65.69
2023-04-02T21:16:20.528Z,65.76
2023-04-02T21:18:50.203Z,65.85
2023-04-02T21:21:19.917Z,65.85
2023-04-02T21:23:54.149Z,65.84
2023-04-02T21:26:22.809Z,65.93
2023-04-02T21:28:52.022Z,66.83
2023-04-02T21:31:29.878Z,66.79
2023-04-02T21:33:58.972Z,66.92
2023-04-02T21:36:29.170Z,66.77
2023-04-02T21:38:58.546Z,66.90
2023-04-02T21:41:28.071Z,67.08
2023-04-02T21:43:57.623Z,66.92
2023-04-02T21:46:27.948Z,67.01
2023-04-02T21:48:58.055Z,66.93
2023-04-02T21:51:27.813Z,66.91
2023-04-02T21:53:56.689Z,66.84
2023-04-02T21:56:26.640Z,66.95
2023-04-02T21:58:57.674Z,66.93
2023-04-02T22:01:28.006Z,66.92
2023-04-02T22:03:58.091Z,66.98
2023-04-02T22:06:27.901Z,66.95
2023-04-02T22:08:59.921Z,67.10
2023-04-02T22:11:31.290Z,67.09
2023-04-02T22:14:02.441Z,67.05
2023-04-02T22:16:31.933Z,67.00
2023-04-02T22:19:02.040Z,67.08
2023-04-02T22:21:33.104Z,66.62
2023-04-02T22:24:02.204Z,66.48
2023-04-02T22:26:32.382Z,66.64
2023-04-02T22:29:01.116Z,66.70
2023-04-02T22:31:31.121Z,66.75
2023-04-02T22:34:00.422Z,66.78
2023-04-02T22:36:29.401Z,66.60
2023-04-02T22:39:00.058Z,66.52
2023-04-02T22:41:33.252Z,66.71
2023-04-02T22:44:03.614Z,66.39
2023-04-02T22:46:32.415Z,66.29
2023-04-02T22:49:01.043Z,66.47
2023-04-02T22:51:30.277Z,66.59
2023-04-02T22:53:59.534Z,66.73
2023-04-02T22:56:31.217Z,66.78
2023-04-02T22:59:00.217Z,66.38
2023-04-02T23:01:29.361Z,66.26
2023-04-02T23:03:58.288Z,66.56
2023-04-02T23:06:27.325Z,66.83
2023-04-02T23:08:55.788Z,67.01
2023-04-02T23:11:25.511Z,66.91
2023-04-02T23:13:55.564Z,66.86
2023-04-02T23:16:28.920Z,66.83
2023-04-02T23:18:57.926Z,66.72
2023-04-02T23:21:27.688Z,66.74
2023-04-02T23:24:01.872Z,66.73
2023-04-02T23:26:33.058Z,66.70
2023-04-02T23:29:02.429Z,66.61
2023-04-02T23:31:31.371Z,66.77
2023-04-02T23:34:02.564Z,66.72
2023-04-02T23:36:34.354Z,66.78
2023-04-02T23:39:04.991Z,66.64
2023-04-02T23:41:33.709Z,66.64
2023-04-02T23:44:04.175Z,66.56
2023-04-02T23:46:35.058Z,66.58
2023-04-02T23:49:03.858Z,66.70
2023-04-02T23:51:32.382Z,66.61
2023-04-02T23:54:00.882Z,66.51
2023-04-02T23:56:29.743Z,66.44
2023-04-02T23:58:58.228Z,66.66
